Aérodrome :
LOGIN :

S'inscrire | Disclaimer

   EN    FR    IT 

 










Légende :    VFR   VFR Marginal   IFR   IFR Intensif   IFR Très Intensif
Visi : 
Plafond : 
>= 8 km
>= 3000ft
5 à 8 km
1000 à 3000 ft
1500m à 5 km
500 à 1000 ft
800 à 1500m
200 à 500 ft
< 800m
< 200 ft
Symboles :   Orages  Brouillard  Fortes neiges  Fortes précipitations  Vent > 20 kt
SIGMETs :   Divers  Orages  Givrage  Turbulence  Onde Orograph.  Cendres Volcan.






- Altitude de l'aérodrome : 1411 ft
- Code IATA : ZHI


LSZG - Grenchen

DERNIER METAR :
  • 141020Z 08015KT 9999 FEW050 08/M05 Q1025 NOSIG

METARs EXPIRÉS :
  • 140950Z 08015KT 9999 FEW050 08/M04 Q1025 NOSIG
  • 140920Z 08016KT 9999 FEW050 06/M06 Q1025 NOSIG
  • 140850Z 08013KT 9999 FEW035 06/M03 Q1026 NOSIG
  • 140820Z 09010KT 9999 FEW040 06/M01 Q1026 NOSIG
  • 140750Z 07008KT 9999 FEW040 04/M01 Q1026 NOSIG

TAF TAF LSZG
Valide du 14 à 09h jusqu'au 14 à 18h UTC


140825Z 1409/1418 06008KT 9999 FEW040
BECMG 1409/1412 05012G27KT
PROB30 1415/1418 SHRASN SCT045TCU
ATIS : +41 32 396 96 33



MET'MAP, la Météo Aéronautique d'un coup d'oeil ! - Copyright ORBIFLY Décembre 2007 - Disclaimer

ORBIFLY MET'MAP TEAM :

Programmation & Développement : Alexandra Zaïnal
Sur une idée originale de : Baudouin d'Aumeries
Assistance à la programmation : Marc-Olivier Méhu
Soutien technique & logistique : Manuel Goepfert

Contact : metmap@orbifly.com




SOURCES & CREDITS :

   NOAA